Time;durP1;ratioP1;P1;durP2;ratioP2;P2;SDS_P1;SDS_P2;PMS_P1;PMS_P2;Temp;Humidity;BMP_temperature;BMP_pressure;BME280_temperature;BME280_humidity;BME280_pressure;Samples;Min_cycle;Max_cycle;Signal;HPM_P1;HPM_P2
2021/08/08 00:00:40;;;;;;;1.17;1.07;;;20.00;67.70;;;;;;5030713;28;20436;-52
2021/08/08 00:03:06;;;;;;;1.30;1.20;;;19.90;68.00;;;;;;5030536;28;20436;-49
2021/08/08 00:05:31;;;;;;;1.30;1.20;;;19.80;68.00;;;;;;5030962;28;20197;-50
2021/08/08 00:07:57;;;;;;;1.37;1.27;;;19.80;68.50;;;;;;5030431;28;20225;-51
2021/08/08 00:10:23;;;;;;;1.17;1.07;;;19.80;68.50;;;;;;5030795;28;20203;-52
2021/08/08 00:12:49;;;;;;;1.43;1.33;;;19.60;68.80;;;;;;5028926;28;20229;-52
2021/08/08 00:15:14;;;;;;;1.10;1.10;;;19.60;69.30;;;;;;5033372;28;20196;-52
2021/08/08 00:17:40;;;;;;;4.53;1.30;;;19.70;69.10;;;;;;5033890;28;20472;-46
2021/08/08 00:20:08;;;;;;;1.20;1.10;;;19.80;68.80;;;;;;5047501;28;20213;-51
2021/08/08 00:22:34;;;;;;;1.70;1.37;;;19.80;68.70;;;;;;5033498;28;20922;-48
2021/08/08 00:25:01;;;;;;;1.97;1.10;;;19.70;68.70;;;;;;5034413;28;20416;-52
2021/08/08 00:27:26;;;;;;;2.67;1.20;;;19.80;68.90;;;;;;5034103;28;20217;-51
2021/08/08 00:29:52;;;;;;;2.67;1.10;;;19.90;68.60;;;;;;5033994;28;20934;-47
2021/08/08 00:32:18;;;;;;;2.30;1.20;;;20.20;68.00;;;;;;5033537;28;20203;-52
2021/08/08 00:34:43;;;;;;;3.30;1.10;;;20.30;67.10;;;;;;5034139;28;20649;-48
2021/08/08 00:37:09;;;;;;;1.13;1.03;;;20.40;66.70;;;;;;5033623;28;20280;-51
2021/08/08 00:39:35;;;;;;;2.90;1.47;;;20.50;66.40;;;;;;5032014;28;20208;-51
2021/08/08 00:42:02;;;;;;;2.37;1.10;;;20.50;65.80;;;;;;5033355;28;20189;-53
2021/08/08 00:44:27;;;;;;;3.00;1.80;;;20.40;66.60;;;;;;5034271;28;20447;-51
2021/08/08 00:46:53;;;;;;;3.80;1.30;;;20.30;66.60;;;;;;5033434;28;20487;-51
2021/08/08 00:49:19;;;;;;;4.03;1.20;;;20.40;66.70;;;;;;5033143;28;20213;-49
2021/08/08 00:51:45;;;;;;;2.60;1.37;;;20.30;67.00;;;;;;5033333;28;20228;-50
2021/08/08 00:54:11;;;;;;;3.13;1.27;;;20.50;66.50;;;;;;5033782;28;20617;-52
2021/08/08 00:56:38;;;;;;;5.10;1.47;;;20.60;66.20;;;;;;5033296;28;20420;-51
2021/08/08 00:59:04;;;;;;;1.20;1.10;;;20.70;65.80;;;;;;5033839;28;20288;-53
2021/08/08 01:01:38;;;;;;;2.40;1.30;;;20.70;65.70;;;;;;5032805;28;20757;-52
2021/08/08 01:04:05;;;;;;;5.80;1.67;;;20.70;65.50;;;;;;5033731;28;20460;-50
2021/08/08 01:06:55;;;;;;;1.90;1.20;;;20.70;65.50;;;;;;5031579;28;20511;-51
2021/08/08 01:09:24;;;;;;;2.70;1.53;;;20.70;65.40;;;;;;5032738;28;20444;-50
2021/08/08 01:11:50;;;;;;;1.83;1.17;;;20.70;65.80;;;;;;5032846;28;20435;-52
2021/08/08 01:14:18;;;;;;;4.10;1.87;;;20.80;65.30;;;;;;5033707;28;20431;-50
2021/08/08 01:16:46;;;;;;;3.00;1.00;;;20.80;65.10;;;;;;5032850;28;20482;-51
2021/08/08 01:19:17;;;;;;;2.13;1.13;;;20.80;65.00;;;;;;5042303;28;20869;-52
2021/08/08 01:21:45;;;;;;;2.67;1.50;;;20.90;65.30;;;;;;5036785;28;20519;-50
2021/08/08 01:24:11;;;;;;;1.40;1.30;;;20.90;65.00;;;;;;5033286;28;20435;-51
2021/08/08 01:26:40;;;;;;;4.23;1.53;;;20.80;65.20;;;;;;5031741;28;21060;-47
2021/08/08 01:29:07;;;;;;;4.77;1.27;;;20.80;65.30;;;;;;5032940;28;20432;-51
2021/08/08 01:31:33;;;;;;;1.67;1.53;;;20.70;65.00;;;;;;5032489;28;20443;-53
2021/08/08 01:33:58;;;;;;;2.00;1.30;;;20.70;65.20;;;;;;5031583;28;20416;-52
2021/08/08 01:36:24;;;;;;;2.83;1.10;;;20.60;64.90;;;;;;5032672;28;20614;-50
2021/08/08 01:39:02;;;;;;;1.33;1.23;;;20.70;64.80;;;;;;5032884;28;20189;-52
2021/08/08 01:41:38;;;;;;;2.60;1.40;;;20.50;65.00;;;;;;5032131;28;20185;-51
2021/08/08 01:44:05;;;;;;;2.00;1.23;;;20.50;65.00;;;;;;5025565;28;20424;-52
2021/08/08 01:46:32;;;;;;;1.67;1.20;;;20.40;65.30;;;;;;5032269;28;20478;-52
2021/08/08 01:48:59;;;;;;;1.50;1.40;;;20.20;65.30;;;;;;5032825;28;20431;-51
2021/08/08 01:51:26;;;;;;;4.73;2.10;;;20.30;65.00;;;;;;5019264;28;20438;-50
2021/08/08 01:53:52;;;;;;;1.23;1.13;;;20.40;64.90;;;;;;5032612;28;20908;-51
2021/08/08 01:56:19;;;;;;;2.00;1.10;;;20.40;64.60;;;;;;5032334;28;20478;-51
2021/08/08 01:58:45;;;;;;;1.17;0.97;;;20.30;64.40;;;;;;5031296;28;20428;-50
2021/08/08 02:01:10;;;;;;;1.03;0.90;;;20.40;64.30;;;;;;5031623;28;20463;-50
2021/08/08 02:03:38;;;;;;;6.00;1.60;;;20.40;63.80;;;;;;5032466;28;20879;-52
2021/08/08 02:06:08;;;;;;;1.93;1.30;;;20.50;64.60;;;;;;5031801;28;20197;-52
2021/08/08 02:08:35;;;;;;;1.07;0.90;;;20.40;63.80;;;;;;5032360;28;20424;-52
2021/08/08 02:11:01;;;;;;;1.33;1.20;;;20.60;63.40;;;;;;5031279;28;20435;-52
2021/08/08 02:13:27;;;;;;;2.57;1.13;;;20.60;63.00;;;;;;5032165;28;20428;-52
2021/08/08 02:15:52;;;;;;;1.17;1.07;;;20.70;62.70;;;;;;5032389;28;20583;-47
2021/08/08 02:18:18;;;;;;;3.40;1.23;;;20.70;62.30;;;;;;5033389;28;20518;-46
2021/08/08 02:20:45;;;;;;;1.80;1.30;;;20.70;61.70;;;;;;5043657;28;20296;-48
2021/08/08 02:23:11;;;;;;;1.03;0.93;;;20.70;61.90;;;;;;5031460;28;20907;-47
2021/08/08 02:25:37;;;;;;;1.17;1.00;;;20.80;61.60;;;;;;5030608;28;20485;-48
2021/08/08 02:28:06;;;;;;;2.23;1.20;;;20.90;61.70;;;;;;5031528;28;20228;-52
2021/08/08 02:30:33;;;;;;;2.80;1.20;;;20.80;61.80;;;;;;5031645;28;20447;-52
2021/08/08 02:32:58;;;;;;;9.13;1.07;;;20.80;61.80;;;;;;5031255;28;20440;-52
2021/08/08 02:35:24;;;;;;;1.50;1.00;;;20.80;61.80;;;;;;5032302;28;20450;-51
2021/08/08 02:37:50;;;;;;;1.87;1.07;;;20.80;61.70;;;;;;5031400;28;20200;-52
2021/08/08 02:40:15;;;;;;;1.37;1.20;;;20.80;61.90;;;;;;5031764;28;20648;-49
2021/08/08 02:42:41;;;;;;;1.50;1.00;;;20.70;62.00;;;;;;5031130;28;20193;-51
2021/08/08 02:45:07;;;;;;;1.70;0.90;;;20.60;62.50;;;;;;5031898;28;20189;-52
2021/08/08 02:47:32;;;;;;;1.30;1.20;;;20.60;62.40;;;;;;5031041;28;20239;-49
2021/08/08 02:49:58;;;;;;;2.70;1.20;;;20.60;62.60;;;;;;5023526;28;20909;-52
2021/08/08 02:52:27;;;;;;;2.07;1.30;;;20.50;63.00;;;;;;5025076;28;20658;-52
2021/08/08 02:54:53;;;;;;;1.30;1.20;;;20.50;63.00;;;;;;5031907;28;20251;-50
2021/08/08 02:57:18;;;;;;;2.73;1.10;;;20.50;63.00;;;;;;5031283;28;20842;-50
2021/08/08 02:59:44;;;;;;;2.37;1.30;;;20.50;63.40;;;;;;5031576;28;20193;-50
2021/08/08 03:02:09;;;;;;;1.37;1.27;;;20.50;63.40;;;;;;5031167;28;20559;-51
2021/08/08 03:04:35;;;;;;;5.80;1.30;;;20.30;63.90;;;;;;5031763;28;20327;-52
2021/08/08 03:07:01;;;;;;;2.13;1.40;;;20.20;64.10;;;;;;5031007;28;20240;-52
2021/08/08 03:09:26;;;;;;;2.50;1.50;;;20.30;63.90;;;;;;5031352;28;20280;-52
2021/08/08 03:11:52;;;;;;;2.20;1.47;;;20.30;63.60;;;;;;5031077;28;20193;-52
2021/08/08 03:14:19;;;;;;;1.30;1.20;;;20.40;63.70;;;;;;5031897;28;20562;-52
2021/08/08 03:16:46;;;;;;;3.40;1.20;;;20.40;63.50;;;;;;5030934;28;20568;-53
2021/08/08 03:19:14;;;;;;;1.23;1.13;;;20.40;63.40;;;;;;5038391;28;20919;-52
2021/08/08 03:21:40;;;;;;;2.30;1.40;;;20.40;63.40;;;;;;5034824;28;20436;-52
2021/08/08 03:24:05;;;;;;;3.27;1.30;;;20.40;63.50;;;;;;5031582;28;20819;-52
2021/08/08 03:26:32;;;;;;;1.83;1.00;;;20.40;63.50;;;;;;5031049;28;20221;-52
2021/08/08 03:28:58;;;;;;;1.40;1.10;;;20.40;63.30;;;;;;5030810;28;20196;-52
2021/08/08 03:31:24;;;;;;;3.63;2.40;;;20.40;63.50;;;;;;5030842;28;20919;-51
2021/08/08 03:33:50;;;;;;;2.90;1.50;;;20.40;63.50;;;;;;5031359;28;20668;-52
2021/08/08 03:36:16;;;;;;;4.00;1.50;;;20.40;63.60;;;;;;5030931;28;20440;-51
2021/08/08 03:38:41;;;;;;;1.20;1.10;;;20.30;63.60;;;;;;5031543;28;20192;-52
2021/08/08 03:41:07;;;;;;;2.07;1.40;;;20.30;63.70;;;;;;5030659;28;20663;-52
2021/08/08 03:43:33;;;;;;;1.67;1.50;;;20.20;63.90;;;;;;5031403;28;20193;-51
2021/08/08 03:45:58;;;;;;;3.00;1.53;;;20.10;64.10;;;;;;5029126;28;20189;-53
2021/08/08 03:48:24;;;;;;;2.07;1.60;;;20.10;64.50;;;;;;5031046;28;20213;-52
2021/08/08 03:50:49;;;;;;;2.13;1.20;;;20.10;64.50;;;;;;5021138;28;20245;-52
2021/08/08 03:53:15;;;;;;;1.30;1.20;;;20.00;64.40;;;;;;5034641;28;20182;-52
2021/08/08 03:55:41;;;;;;;2.43;1.10;;;20.00;64.40;;;;;;5034913;28;20223;-51
2021/08/08 03:58:06;;;;;;;2.77;1.80;;;20.10;64.10;;;;;;5034436;28;20638;-52
2021/08/08 04:00:32;;;;;;;2.70;1.40;;;20.00;64.30;;;;;;5034457;28;20299;-52
2021/08/08 04:02:58;;;;;;;1.73;1.40;;;20.00;64.10;;;;;;5034311;28;20221;-53
2021/08/08 04:05:23;;;;;;;1.90;1.20;;;20.10;64.00;;;;;;5034687;28;20609;-52
2021/08/08 04:07:49;;;;;;;2.43;1.80;;;20.10;64.00;;;;;;5034354;28;20220;-50
2021/08/08 04:10:15;;;;;;;1.53;1.30;;;20.10;63.90;;;;;;5034467;28;20190;-52
2021/08/08 04:12:40;;;;;;;2.07;1.37;;;20.00;63.90;;;;;;5032728;28;20189;-52
2021/08/08 04:15:07;;;;;;;4.00;1.60;;;19.90;64.30;;;;;;5034523;28;20584;-52
2021/08/08 04:17:32;;;;;;;3.03;1.47;;;19.80;65.00;;;;;;5033679;28;20245;-52
2021/08/08 04:19:58;;;;;;;1.70;1.60;;;19.70;65.60;;;;;;5047809;28;20472;-50
2021/08/08 04:22:23;;;;;;;2.70;1.50;;;19.70;66.10;;;;;;5034097;28;20235;-50
2021/08/08 04:24:49;;;;;;;1.70;1.60;;;19.20;67.00;;;;;;5034469;28;20182;-51
2021/08/08 04:27:15;;;;;;;3.17;1.50;;;19.30;67.20;;;;;;5033863;28;20217;-52
2021/08/08 04:29:41;;;;;;;1.47;1.37;;;19.30;67.50;;;;;;5033997;28;20216;-51
2021/08/08 04:32:08;;;;;;;2.53;1.37;;;19.30;67.70;;;;;;5033743;28;20590;-50
2021/08/08 04:34:34;;;;;;;1.57;1.43;;;19.40;67.30;;;;;;5034224;28;20428;-52
2021/08/08 04:37:00;;;;;;;1.63;1.50;;;19.40;67.10;;;;;;5032550;28;20513;-53
2021/08/08 04:39:26;;;;;;;3.23;1.40;;;19.40;66.80;;;;;;5033147;28;20420;-51
2021/08/08 04:41:52;;;;;;;2.27;1.40;;;19.30;67.10;;;;;;5033368;28;20428;-52
2021/08/08 04:44:21;;;;;;;2.60;1.10;;;19.30;67.10;;;;;;5034102;28;20420;-52
2021/08/08 04:46:48;;;;;;;2.60;1.30;;;19.40;67.40;;;;;;5033564;28;20305;-51
2021/08/08 04:49:14;;;;;;;4.20;1.57;;;19.50;67.00;;;;;;5033601;28;20477;-52
2021/08/08 04:51:40;;;;;;;2.07;1.10;;;19.40;66.90;;;;;;5033463;28;20991;-51
2021/08/08 04:54:06;;;;;;;2.93;1.30;;;19.50;67.00;;;;;;5033997;28;20412;-52
2021/08/08 04:56:31;;;;;;;2.60;1.00;;;19.40;67.10;;;;;;5033280;28;20440;-51
2021/08/08 04:58:57;;;;;;;1.37;1.27;;;19.40;67.40;;;;;;5033543;28;20612;-52
2021/08/08 05:01:23;;;;;;;4.53;1.90;;;19.50;67.20;;;;;;5033328;28;20228;-52
2021/08/08 05:03:48;;;;;;;12.00;7.87;;;19.60;67.00;;;;;;5031909;28;20193;-50
2021/08/08 05:06:14;;;;;;;10.50;6.30;;;19.50;67.00;;;;;;5033017;28;20251;-51
2021/08/08 05:08:39;;;;;;;8.40;5.07;;;19.50;67.20;;;;;;5033623;28;20195;-51
2021/08/08 05:11:05;;;;;;;5.60;3.13;;;19.70;66.90;;;;;;5032741;28;20212;-47
2021/08/08 05:13:31;;;;;;;3.13;2.20;;;19.80;66.30;;;;;;5033352;28;20208;-45
2021/08/08 05:15:57;;;;;;;1.70;1.60;;;20.00;65.90;;;;;;5033453;28;20569;-48
2021/08/08 05:18:23;;;;;;;5.20;1.60;;;20.10;65.70;;;;;;5035394;28;20772;-46
2021/08/08 05:20:48;;;;;;;1.40;1.30;;;20.20;65.50;;;;;;5044465;28;20518;-46
2021/08/08 05:23:14;;;;;;;5.43;1.50;;;20.30;65.40;;;;;;5032665;28;20435;-46
2021/08/08 05:25:40;;;;;;;2.07;1.30;;;20.30;65.30;;;;;;5033696;28;20296;-46
2021/08/08 05:28:06;;;;;;;1.37;1.27;;;20.40;65.90;;;;;;5032726;28;20681;-46
2021/08/08 05:30:31;;;;;;;2.40;1.10;;;20.40;65.20;;;;;;5031208;28;20196;-46
2021/08/08 05:32:57;;;;;;;1.63;1.30;;;20.30;65.90;;;;;;5032380;28;20561;-46
2021/08/08 05:35:22;;;;;;;2.47;1.30;;;20.30;66.10;;;;;;5033135;28;20205;-46
2021/08/08 05:37:48;;;;;;;1.80;1.43;;;20.40;66.00;;;;;;5032779;28;20189;-47
2021/08/08 05:40:14;;;;;;;2.90;1.20;;;20.50;65.70;;;;;;5032476;28;20272;-46
2021/08/08 05:42:46;;;;;;;1.97;1.40;;;20.60;65.40;;;;;;5032259;28;20272;-46
2021/08/08 05:45:12;;;;;;;2.50;1.13;;;20.70;65.10;;;;;;5033166;28;20205;-46
2021/08/08 05:47:38;;;;;;;1.50;1.40;;;20.70;65.20;;;;;;5032286;28;20969;-47
2021/08/08 05:50:04;;;;;;;1.20;0.93;;;20.70;65.30;;;;;;5023757;28;20189;-47
2021/08/08 05:52:29;;;;;;;3.63;1.67;;;20.50;64.80;;;;;;5029257;28;20432;-46
2021/08/08 05:54:55;;;;;;;2.07;1.80;;;20.50;65.30;;;;;;5033035;28;20513;-48
2021/08/08 05:57:21;;;;;;;2.10;1.30;;;20.50;65.30;;;;;;5031019;28;20225;-46
2021/08/08 05:59:46;;;;;;;1.00;0.90;;;20.60;64.30;;;;;;5032216;28;20276;-46
2021/08/08 06:02:12;;;;;;;3.43;1.40;;;20.60;63.90;;;;;;5032055;28;20197;-47
2021/08/08 06:04:38;;;;;;;2.47;1.10;;;20.60;63.70;;;;;;5032640;28;20217;-47
2021/08/08 06:07:04;;;;;;;3.30;1.20;;;20.60;63.20;;;;;;5032087;28;20237;-50
2021/08/08 06:09:29;;;;;;;3.67;1.70;;;20.70;63.20;;;;;;5032384;28;20197;-46
2021/08/08 06:11:55;;;;;;;1.67;1.30;;;20.70;63.10;;;;;;5031305;28;20435;-46
2021/08/08 06:14:20;;;;;;;2.40;1.20;;;20.70;63.00;;;;;;5032371;28;20189;-46
2021/08/08 06:16:46;;;;;;;1.90;1.47;;;20.60;63.20;;;;;;5031816;28;20544;-46
2021/08/08 06:19:11;;;;;;;1.47;0.97;;;20.50;63.10;;;;;;5040507;28;20240;-47
2021/08/08 06:21:37;;;;;;;2.70;1.20;;;20.60;63.30;;;;;;5036181;28;20204;-47
2021/08/08 06:24:03;;;;;;;1.77;0.97;;;20.90;63.40;;;;;;5030767;28;20198;-47
2021/08/08 06:26:29;;;;;;;1.13;1.03;;;21.00;62.40;;;;;;5031389;28;20723;-46
2021/08/08 06:28:55;;;;;;;1.87;1.30;;;21.00;62.00;;;;;;5031846;28;20228;-48
2021/08/08 06:31:21;;;;;;;1.60;0.90;;;21.10;62.20;;;;;;5031349;28;20749;-47
2021/08/08 06:33:46;;;;;;;1.87;1.20;;;21.30;61.60;;;;;;5032273;28;20511;-49
2021/08/08 06:36:12;;;;;;;0.70;0.70;;;21.30;60.50;;;;;;5031541;28;20200;-46
2021/08/08 06:38:38;;;;;;;2.00;1.33;;;21.40;60.40;;;;;;5031709;28;20212;-46
2021/08/08 06:41:04;;;;;;;2.63;1.03;;;21.50;59.50;;;;;;5031429;28;20193;-48
2021/08/08 06:43:29;;;;;;;2.50;1.07;;;21.60;59.90;;;;;;5032028;28;20435;-47
2021/08/08 06:45:55;;;;;;;4.27;1.30;;;21.70;59.60;;;;;;5031848;28;20203;-49
2021/08/08 06:48:20;;;;;;;1.27;1.17;;;21.90;59.40;;;;;;5031506;28;20260;-46
2021/08/08 06:50:46;;;;;;;1.03;0.90;;;22.20;59.10;;;;;;5017188;28;20248;-47
2021/08/08 06:53:11;;;;;;;1.13;0.93;;;22.00;58.50;;;;;;5031276;28;20193;-49
2021/08/08 06:55:37;;;;;;;1.87;1.27;;;22.10;58.70;;;;;;5031648;28;20561;-47
2021/08/08 06:58:03;;;;;;;4.20;1.03;;;22.10;58.50;;;;;;5031358;28;20197;-46
2021/08/08 07:00:28;;;;;;;5.30;1.20;;;22.30;59.00;;;;;;5031219;28;20197;-46
2021/08/08 07:02:54;;;;;;;1.30;1.20;;;22.40;57.80;;;;;;5031055;28;20205;-47
2021/08/08 07:05:20;;;;;;;4.97;1.00;;;22.60;57.90;;;;;;5031554;28;20204;-47
2021/08/08 07:07:46;;;;;;;0.83;0.83;;;22.70;57.50;;;;;;5030909;28;20979;-50
2021/08/08 07:10:11;;;;;;;2.87;1.10;;;22.90;56.20;;;;;;5031172;28;20268;-46
2021/08/08 07:12:37;;;;;;;2.30;1.00;;;23.00;56.30;;;;;;5031013;28;20185;-48
2021/08/08 07:15:04;;;;;;;2.60;1.40;;;23.20;56.30;;;;;;5031618;28;20216;-47
2021/08/08 07:17:30;;;;;;;1.40;1.07;;;23.40;56.00;;;;;;5029155;28;20225;-48
2021/08/08 07:19:55;;;;;;;2.90;1.17;;;23.50;55.60;;;;;;5044527;28;20431;-53
2021/08/08 07:22:21;;;;;;;2.97;1.27;;;23.60;54.10;;;;;;5030957;28;20189;-47
2021/08/08 07:24:51;;;;;;;2.60;1.20;;;23.40;54.20;;;;;;5033469;28;20661;-47
2021/08/08 07:27:20;;;;;;;3.97;1.10;;;23.60;54.50;;;;;;5034736;28;20224;-48
2021/08/08 07:29:46;;;;;;;3.93;1.10;;;23.60;54.40;;;;;;5035355;28;20513;-47
2021/08/08 07:32:11;;;;;;;1.37;1.10;;;23.70;54.20;;;;;;5034957;28;20852;-47
2021/08/08 07:34:37;;;;;;;1.67;1.20;;;23.90;53.90;;;;;;5035423;28;20560;-48
2021/08/08 07:37:03;;;;;;;1.50;1.00;;;24.10;53.40;;;;;;5034487;28;20263;-47
2021/08/08 07:39:31;;;;;;;5.37;2.47;;;24.10;53.70;;;;;;5035099;28;20193;-47
2021/08/08 07:41:57;;;;;;;1.70;1.07;;;24.30;53.80;;;;;;5034780;28;20185;-48
2021/08/08 07:44:22;;;;;;;1.80;1.30;;;24.50;53.40;;;;;;5033503;28;20523;-47
2021/08/08 07:46:48;;;;;;;0.97;0.93;;;24.60;51.50;;;;;;5034751;28;20639;-47
2021/08/08 07:49:14;;;;;;;1.20;1.10;;;24.50;51.20;;;;;;5032808;28;20197;-49
2021/08/08 07:51:39;;;;;;;1.23;1.13;;;24.50;51.90;;;;;;5024533;28;20197;-49
2021/08/08 07:54:05;;;;;;;3.37;1.10;;;24.40;52.40;;;;;;5035239;28;20247;-47
2021/08/08 07:56:31;;;;;;;2.23;1.37;;;24.60;52.30;;;;;;5034801;28;20559;-46
2021/08/08 07:58:56;;;;;;;1.80;0.90;;;24.60;51.80;;;;;;5034238;28;20240;-47
2021/08/08 08:01:22;;;;;;;2.00;1.10;;;24.70;51.80;;;;;;5034387;28;20891;-47
2021/08/08 08:03:48;;;;;;;1.33;1.20;;;25.00;52.50;;;;;;5034926;28;20575;-47
2021/08/08 08:06:13;;;;;;;4.10;1.20;;;24.80;50.40;;;;;;5034086;28;20196;-47
2021/08/08 08:08:40;;;;;;;2.70;1.10;;;24.50;50.60;;;;;;5033564;28;20204;-47
2021/08/08 08:11:06;;;;;;;1.77;1.40;;;24.40;50.40;;;;;;5033376;28;20228;-47
2021/08/08 08:13:31;;;;;;;3.57;1.07;;;24.40;50.80;;;;;;5034773;28;20432;-47
2021/08/08 08:15:57;;;;;;;1.10;1.00;;;24.30;51.80;;;;;;5034395;28;20272;-52
2021/08/08 08:18:23;;;;;;;6.00;1.47;;;24.00;51.60;;;;;;5032737;28;20233;-52
2021/08/08 08:20:49;;;;;;;1.00;1.00;;;23.90;52.30;;;;;;5033490;28;20193;-48
2021/08/08 08:23:14;;;;;;;1.90;0.90;;;24.00;52.00;;;;;;5032862;28;20198;-46
2021/08/08 08:25:40;;;;;;;1.67;1.37;;;24.30;51.60;;;;;;5033444;28;20254;-47
2021/08/08 08:28:06;;;;;;;3.90;1.40;;;24.50;51.60;;;;;;5032647;28;20256;-47
2021/08/08 08:30:32;;;;;;;2.17;1.00;;;24.50;52.00;;;;;;5033033;28;20197;-46
2021/08/08 08:32:59;;;;;;;1.63;1.00;;;24.10;50.20;;;;;;5032633;28;20275;-47
2021/08/08 08:35:24;;;;;;;4.27;1.60;;;23.80;50.50;;;;;;5030970;28;20463;-48
2021/08/08 08:37:50;;;;;;;4.17;1.20;;;23.60;51.00;;;;;;5032307;28;20463;-47
2021/08/08 08:40:15;;;;;;;3.37;1.30;;;23.30;51.00;;;;;;5032983;28;20201;-47
2021/08/08 08:42:53;;;;;;;2.00;0.90;;;23.40;51.90;;;;;;5032438;28;20197;-48
2021/08/08 08:45:19;;;;;;;3.00;1.23;;;23.60;51.60;;;;;;5033018;28;20196;-52
2021/08/08 08:47:46;;;;;;;1.67;1.23;;;23.80;51.90;;;;;;5032263;28;20541;-46
2021/08/08 08:50:12;;;;;;;2.87;1.43;;;23.80;50.30;;;;;;5023082;28;20648;-47
2021/08/08 08:52:39;;;;;;;2.63;1.03;;;23.70;50.60;;;;;;5029182;28;20431;-49
2021/08/08 08:55:05;;;;;;;2.87;1.27;;;24.10;50.70;;;;;;5032825;28;20566;-47
2021/08/08 08:57:32;;;;;;;1.43;1.07;;;24.50;50.50;;;;;;5032137;28;20432;-48
2021/08/08 09:00:03;;;;;;;1.70;1.10;;;24.70;50.00;;;;;;5032296;28;20424;-47
2021/08/08 09:02:29;;;;;;;4.40;1.30;;;24.90;49.30;;;;;;5030371;28;20924;-47
2021/08/08 09:04:55;;;;;;;1.20;1.10;;;25.00;49.30;;;;;;5032754;28;20505;-47
2021/08/08 09:07:20;;;;;;;1.77;1.20;;;25.20;48.90;;;;;;5031813;28;20228;-47
2021/08/08 09:09:46;;;;;;;1.77;1.07;;;25.50;47.90;;;;;;5032586;28;20304;-49
2021/08/08 09:12:24;;;;;;;0.97;0.90;;;25.50;47.50;;;;;;5031971;28;20608;-47
2021/08/08 09:15:00;;;;;;;1.83;1.20;;;25.40;46.50;;;;;;5032901;28;20197;-49
2021/08/08 09:17:27;;;;;;;2.57;1.10;;;25.20;47.90;;;;;;4992474;28;1135853;-47
2021/08/08 09:20:11;;;;;;;1.43;1.10;;;25.10;47.50;;;;;;5045067;28;20736;-47
2021/08/08 09:22:39;;;;;;;1.23;1.13;;;25.40;47.50;;;;;;5033045;28;20518;-48
2021/08/08 09:25:05;;;;;;;4.13;1.23;;;25.60;46.70;;;;;;5033389;28;20428;-47
2021/08/08 09:27:38;;;;;;;1.27;1.00;;;25.70;46.60;;;;;;5032616;28;20494;-47
2021/08/08 09:30:15;;;;;;;0.97;0.97;;;25.80;46.60;;;;;;5031060;28;20570;-48
2021/08/08 09:32:41;;;;;;;4.13;1.00;;;25.90;47.10;;;;;;5032693;28;20423;-46
2021/08/08 09:35:19;;;;;;;3.13;1.53;;;26.20;46.30;;;;;;5033096;28;20948;-47
2021/08/08 09:37:59;;;;;;;1.20;1.10;;;26.20;46.10;;;;;;5032769;28;20288;-47
2021/08/08 09:40:25;;;;;;;1.53;1.10;;;26.50;46.50;;;;;;5031607;28;20460;-47
2021/08/08 09:42:52;;;;;;;2.33;1.77;;;26.60;45.10;;;;;;5032018;28;20416;-47
2021/08/08 09:45:17;;;;;;;2.60;1.50;;;26.60;45.60;;;;;;5033082;28;20202;-47
2021/08/08 09:47:48;;;;;;;2.50;1.50;;;26.60;44.70;;;;;;5030112;28;20483;-48
2021/08/08 09:50:16;;;;;;;1.93;1.20;;;26.70;45.10;;;;;;5023054;28;20197;-48
2021/08/08 09:52:52;;;;;;;1.77;0.87;;;26.90;44.30;;;;;;5029854;28;20466;-47
2021/08/08 09:55:39;;;;;;;1.10;1.00;;;27.10;44.20;;;;;;5031442;28;20446;-48
2021/08/08 09:58:27;;;;;;;1.07;1.07;;;27.30;42.10;;;;;;5032106;28;20436;-48
2021/08/08 10:01:00;;;;;;;1.50;1.10;;;27.40;42.50;;;;;;5032620;28;20461;-48
2021/08/08 10:03:26;;;;;;;2.00;1.00;;;27.30;42.30;;;;;;5032248;28;20446;-47
2021/08/08 10:05:54;;;;;;;3.83;1.40;;;27.40;42.40;;;;;;5032588;28;20420;-47
2021/08/08 10:08:22;;;;;;;3.30;1.10;;;27.50;42.70;;;;;;5031477;28;20491;-48
2021/08/08 10:10:52;;;;;;;5.13;1.17;;;27.60;42.10;;;;;;5032701;28;20420;-47
2021/08/08 10:13:43;;;;;;;3.50;0.93;;;27.80;41.40;;;;;;5031644;28;20955;-48
2021/08/08 10:16:13;;;;;;;1.30;1.00;;;27.90;40.40;;;;;;5031849;28;20436;-48
2021/08/08 10:18:43;;;;;;;1.60;1.30;;;28.00;40.10;;;;;;5036552;28;20473;-47
2021/08/08 10:21:09;;;;;;;1.47;0.87;;;27.90;40.60;;;;;;5038500;28;20936;-48
2021/08/08 10:23:37;;;;;;;2.53;1.37;;;27.90;40.00;;;;;;5032278;28;20470;-48
2021/08/08 10:26:03;;;;;;;2.10;1.20;;;27.80;40.80;;;;;;5031826;28;20440;-47
2021/08/08 10:28:29;;;;;;;1.33;1.03;;;27.80;40.40;;;;;;5031767;28;20835;-48
2021/08/08 10:30:58;;;;;;;1.70;1.20;;;27.80;40.80;;;;;;5032160;28;20271;-48
2021/08/08 10:33:24;;;;;;;1.83;0.90;;;27.80;40.20;;;;;;5032176;28;20432;-48
2021/08/08 10:35:51;;;;;;;1.43;1.30;;;27.60;39.60;;;;;;5032085;28;20419;-49
2021/08/08 10:38:17;;;;;;;1.17;1.03;;;27.50;41.20;;;;;;5030876;28;20201;-48
2021/08/08 10:40:44;;;;;;;2.90;1.50;;;27.80;41.80;;;;;;5032196;28;20440;-48
2021/08/08 10:43:23;;;;;;;2.00;1.20;;;28.00;41.00;;;;;;5031267;28;20464;-47
2021/08/08 10:45:48;;;;;;;1.13;1.03;;;28.20;40.30;;;;;;5032052;28;20782;-47
2021/08/08 10:48:14;;;;;;;1.47;1.10;;;27.90;39.50;;;;;;5029108;28;20488;-47
2021/08/08 10:50:48;;;;;;;2.80;1.30;;;27.60;40.60;;;;;;5019606;28;20204;-49
2021/08/08 10:53:21;;;;;;;2.60;1.27;;;27.50;40.90;;;;;;5031389;28;20432;-48
2021/08/08 10:55:49;;;;;;;6.23;1.40;;;27.50;41.30;;;;;;5031984;28;20928;-47
2021/08/08 10:58:15;;;;;;;2.30;1.47;;;27.60;41.00;;;;;;5030599;28;20424;-47
2021/08/08 11:00:42;;;;;;;1.67;1.27;;;27.50;40.40;;;;;;5031696;28;20416;-49
2021/08/08 11:03:13;;;;;;;3.07;1.57;;;27.40;40.70;;;;;;5031189;28;20427;-48
2021/08/08 11:05:39;;;;;;;1.43;1.27;;;27.50;40.50;;;;;;5031704;28;20535;-47
2021/08/08 11:08:07;;;;;;;1.73;1.23;;;27.60;40.70;;;;;;5030867;28;20582;-49
2021/08/08 11:10:37;;;;;;;4.80;1.20;;;27.60;40.30;;;;;;5031794;28;20575;-47
2021/08/08 11:13:02;;;;;;;2.03;1.40;;;27.80;40.90;;;;;;5031294;28;20432;-47
2021/08/08 11:15:34;;;;;;;1.43;1.33;;;27.80;40.90;;;;;;5029995;28;20428;-48
2021/08/08 11:18:00;;;;;;;1.93;1.27;;;27.60;40.40;;;;;;5030725;28;20240;-47
2021/08/08 11:20:30;;;;;;;1.50;1.00;;;27.70;39.60;;;;;;5044791;28;20863;-47
2021/08/08 11:22:58;;;;;;;1.20;0.83;;;27.70;39.80;;;;;;5031039;28;20922;-47
2021/08/08 11:25:25;;;;;;;2.80;1.37;;;27.90;40.00;;;;;;5031479;28;20423;-47
2021/08/08 11:27:55;;;;;;;1.10;1.00;;;27.90;38.80;;;;;;5030733;28;20530;-47
2021/08/08 11:30:21;;;;;;;2.73;1.33;;;27.60;38.50;;;;;;5031067;28;20436;-47
2021/08/08 11:32:49;;;;;;;2.33;1.40;;;27.20;38.60;;;;;;5030887;28;20435;-48
2021/08/08 11:35:17;;;;;;;1.30;1.07;;;27.20;40.00;;;;;;5031656;28;20428;-48
2021/08/08 11:37:45;;;;;;;1.50;1.10;;;27.10;40.00;;;;;;5030762;28;20848;-48
2021/08/08 11:40:20;;;;;;;2.20;1.33;;;27.20;40.10;;;;;;5030965;28;20443;-47
2021/08/08 11:42:47;;;;;;;1.10;1.10;;;27.10;39.40;;;;;;5029876;28;20438;-48
2021/08/08 11:45:13;;;;;;;1.50;1.40;;;27.10;39.60;;;;;;5031906;28;20432;-47
2021/08/08 11:47:39;;;;;;;1.53;1.00;;;26.80;38.20;;;;;;5030758;28;20524;-47
2021/08/08 11:50:06;;;;;;;2.00;1.30;;;26.70;39.10;;;;;;5022600;28;20201;-47
2021/08/08 11:52:32;;;;;;;1.43;1.30;;;26.50;40.30;;;;;;5026581;28;20424;-47
2021/08/08 11:55:08;;;;;;;1.57;1.33;;;26.60;40.70;;;;;;5031256;28;20467;-49
2021/08/08 11:57:35;;;;;;;2.20;1.77;;;26.50;39.90;;;;;;5030540;28;20489;-47
2021/08/08 12:00:03;;;;;;;1.40;1.10;;;26.80;40.40;;;;;;5029535;28;20513;-47
2021/08/08 12:02:29;;;;;;;3.60;1.20;;;27.20;40.80;;;;;;5030285;28;20424;-47
2021/08/08 12:04:56;;;;;;;2.87;1.50;;;27.30;40.00;;;;;;5031061;28;20436;-47
2021/08/08 12:07:24;;;;;;;3.57;1.30;;;27.30;40.20;;;;;;5027725;28;20614;-47
2021/08/08 12:09:51;;;;;;;2.83;1.37;;;27.10;39.90;;;;;;5030935;28;20800;-48
2021/08/08 12:12:17;;;;;;;1.37;1.17;;;27.00;41.20;;;;;;5034337;28;20466;-48
2021/08/08 12:14:45;;;;;;;1.23;1.13;;;26.90;42.90;;;;;;5034886;28;20817;-48
2021/08/08 12:17:16;;;;;;;3.03;1.53;;;26.80;42.30;;;;;;5034025;28;20193;-48
2021/08/08 12:19:44;;;;;;;3.23;1.43;;;26.80;42.20;;;;;;5047365;28;20790;-47
2021/08/08 12:22:19;;;;;;;4.03;1.63;;;26.50;42.00;;;;;;5033910;28;20963;-48
2021/08/08 12:24:46;;;;;;;1.80;1.23;;;26.30;42.60;;;;;;5034370;28;20430;-48
2021/08/08 12:27:15;;;;;;;1.87;1.67;;;26.20;43.20;;;;;;5033983;28;20483;-47
2021/08/08 12:29:42;;;;;;;1.60;1.50;;;25.80;43.80;;;;;;5034103;28;21046;-47
2021/08/08 12:32:16;;;;;;;1.60;1.50;;;25.80;44.10;;;;;;5033768;28;20415;-47
2021/08/08 12:34:44;;;;;;;3.27;1.17;;;25.90;44.40;;;;;;5032948;28;20791;-48
2021/08/08 12:37:12;;;;;;;3.20;1.20;;;26.00;43.30;;;;;;5033689;28;20431;-48
2021/08/08 12:39:40;;;;;;;1.30;1.10;;;25.90;42.60;;;;;;5033880;28;20443;-48
2021/08/08 12:42:22;;;;;;;1.87;1.00;;;26.10;42.60;;;;;;5033484;28;20432;-48
2021/08/08 12:44:49;;;;;;;1.23;1.13;;;26.00;40.60;;;;;;5034452;28;20444;-47